sensor_id;sensor_type;location;lat;lon;timestamp;temperature;humidity
72591;SHT31;60625;51.212;5.952;2022-11-20T00:03:04;3.20;74.29
72591;SHT31;60625;51.212;5.952;2022-11-20T00:08:04;3.20;74.74
72591;SHT31;60625;51.212;5.952;2022-11-20T00:13:06;3.22;74.30
72591;SHT31;60625;51.212;5.952;2022-11-20T00:18:07;3.19;74.68
72591;SHT31;60625;51.212;5.952;2022-11-20T00:23:07;3.17;74.93
72591;SHT31;60625;51.212;5.952;2022-11-20T00:28:08;3.19;74.71
72591;SHT31;60625;51.212;5.952;2022-11-20T00:33:08;3.24;74.86
72591;SHT31;60625;51.212;5.952;2022-11-20T00:38:09;3.32;75.06
72591;SHT31;60625;51.212;5.952;2022-11-20T00:43:09;3.37;74.84
72591;SHT31;60625;51.212;5.952;2022-11-20T00:48:10;3.37;74.81
72591;SHT31;60625;51.212;5.952;2022-11-20T00:53:10;3.34;74.96
72591;SHT31;60625;51.212;5.952;2022-11-20T00:58:11;3.32;75.02
72591;SHT31;60625;51.212;5.952;2022-11-20T01:03:11;3.28;75.25
72591;SHT31;60625;51.212;5.952;2022-11-20T01:08:12;3.26;75.88
72591;SHT31;60625;51.212;5.952;2022-11-20T01:13:12;3.25;76.05
72591;SHT31;60625;51.212;5.952;2022-11-20T01:18:35;3.27;76.10
72591;SHT31;60625;51.212;5.952;2022-11-20T01:23:39;3.27;76.17
72591;SHT31;60625;51.212;5.952;2022-11-20T01:28:42;3.25;76.15
72591;SHT31;60625;51.212;5.952;2022-11-20T01:33:43;3.26;76.16
72591;SHT31;60625;51.212;5.952;2022-11-20T01:38:46;3.22;76.36
72591;SHT31;60625;51.212;5.952;2022-11-20T01:43:46;3.19;76.43
72591;SHT31;60625;51.212;5.952;2022-11-20T01:54:15;3.18;76.49
72591;SHT31;60625;51.212;5.952;2022-11-20T01:59:21;3.13;76.95
72591;SHT31;60625;51.212;5.952;2022-11-20T02:04:26;3.09;76.96
72591;SHT31;60625;51.212;5.952;2022-11-20T02:09:27;3.00;77.28
72591;SHT31;60625;51.212;5.952;2022-11-20T02:14:28;2.92;77.18
72591;SHT31;60625;51.212;5.952;2022-11-20T02:19:30;2.76;77.58
72591;SHT31;60625;51.212;5.952;2022-11-20T02:24:31;2.69;77.50
72591;SHT31;60625;51.212;5.952;2022-11-20T02:29:36;2.49;77.32
72591;SHT31;60625;51.212;5.952;2022-11-20T02:34:52;2.35;77.50
72591;SHT31;60625;51.212;5.952;2022-11-20T02:39:54;2.28;77.47
72591;SHT31;60625;51.212;5.952;2022-11-20T02:44:55;2.19;77.60
72591;SHT31;60625;51.212;5.952;2022-11-20T02:49:55;2.10;77.92
72591;SHT31;60625;51.212;5.952;2022-11-20T02:54:56;2.06;78.25
72591;SHT31;60625;51.212;5.952;2022-11-20T02:59:56;2.09;78.19
72591;SHT31;60625;51.212;5.952;2022-11-20T03:04:57;2.05;78.25
72591;SHT31;60625;51.212;5.952;2022-11-20T03:09:58;2.02;78.15
72591;SHT31;60625;51.212;5.952;2022-11-20T03:14:58;1.96;78.13
72591;SHT31;60625;51.212;5.952;2022-11-20T03:19:58;2.00;78.12
72591;SHT31;60625;51.212;5.952;2022-11-20T03:24:59;2.02;77.98
72591;SHT31;60625;51.212;5.952;2022-11-20T03:29:59;2.08;77.71
72591;SHT31;60625;51.212;5.952;2022-11-20T03:35:00;2.08;77.75
72591;SHT31;60625;51.212;5.952;2022-11-20T03:40:01;2.08;77.64
72591;SHT31;60625;51.212;5.952;2022-11-20T03:45:01;2.12;77.68
72591;SHT31;60625;51.212;5.952;2022-11-20T03:50:02;2.12;77.43
72591;SHT31;60625;51.212;5.952;2022-11-20T03:55:04;2.14;77.79
72591;SHT31;60625;51.212;5.952;2022-11-20T04:00:06;2.21;77.69
72591;SHT31;60625;51.212;5.952;2022-11-20T04:05:07;2.22;77.43
72591;SHT31;60625;51.212;5.952;2022-11-20T04:10:08;2.20;77.32
72591;SHT31;60625;51.212;5.952;2022-11-20T04:15:09;2.16;77.71
72591;SHT31;60625;51.212;5.952;2022-11-20T04:20:09;2.16;77.98
72591;SHT31;60625;51.212;5.952;2022-11-20T04:25:10;2.15;78.19
72591;SHT31;60625;51.212;5.952;2022-11-20T04:30:13;2.18;78.25
72591;SHT31;60625;51.212;5.952;2022-11-20T04:35:14;2.19;78.14
72591;SHT31;60625;51.212;5.952;2022-11-20T04:40:14;2.19;78.03
72591;SHT31;60625;51.212;5.952;2022-11-20T04:45:15;2.17;77.79
72591;SHT31;60625;51.212;5.952;2022-11-20T04:50:15;2.20;77.76
72591;SHT31;60625;51.212;5.952;2022-11-20T04:55:16;2.25;77.64
72591;SHT31;60625;51.212;5.952;2022-11-20T05:00:16;2.25;77.41
72591;SHT31;60625;51.212;5.952;2022-11-20T05:05:17;2.24;77.73
72591;SHT31;60625;51.212;5.952;2022-11-20T05:10:17;2.27;78.11
72591;SHT31;60625;51.212;5.952;2022-11-20T05:15:18;2.32;77.80
72591;SHT31;60625;51.212;5.952;2022-11-20T05:20:19;2.32;77.74
72591;SHT31;60625;51.212;5.952;2022-11-20T05:25:20;2.35;78.09
72591;SHT31;60625;51.212;5.952;2022-11-20T05:30:20;2.35;78.04
72591;SHT31;60625;51.212;5.952;2022-11-20T05:35:21;2.30;78.29
72591;SHT31;60625;51.212;5.952;2022-11-20T05:40:21;2.27;78.74
72591;SHT31;60625;51.212;5.952;2022-11-20T05:45:22;2.21;79.03
72591;SHT31;60625;51.212;5.952;2022-11-20T05:50:22;2.20;78.89
72591;SHT31;60625;51.212;5.952;2022-11-20T05:55:22;2.30;79.07
72591;SHT31;60625;51.212;5.952;2022-11-20T06:00:23;2.30;78.93
72591;SHT31;60625;51.212;5.952;2022-11-20T06:05:23;2.33;79.21
72591;SHT31;60625;51.212;5.952;2022-11-20T06:10:24;2.39;79.22
72591;SHT31;60625;51.212;5.952;2022-11-20T06:15:24;2.45;79.13
72591;SHT31;60625;51.212;5.952;2022-11-20T06:20:25;2.55;79.32
72591;SHT31;60625;51.212;5.952;2022-11-20T06:25:26;2.62;79.19
72591;SHT31;60625;51.212;5.952;2022-11-20T06:30:26;2.69;79.11
72591;SHT31;60625;51.212;5.952;2022-11-20T06:35:27;2.74;79.06
72591;SHT31;60625;51.212;5.952;2022-11-20T06:40:28;2.78;79.01
72591;SHT31;60625;51.212;5.952;2022-11-20T06:45:28;2.81;79.00
72591;SHT31;60625;51.212;5.952;2022-11-20T06:50:29;2.83;79.14
72591;SHT31;60625;51.212;5.952;2022-11-20T06:55:29;2.82;79.50
72591;SHT31;60625;51.212;5.952;2022-11-20T07:00:31;2.84;79.87
72591;SHT31;60625;51.212;5.952;2022-11-20T07:05:32;2.92;80.05
72591;SHT31;60625;51.212;5.952;2022-11-20T07:10:33;2.99;80.23
72591;SHT31;60625;51.212;5.952;2022-11-20T07:15:34;3.06;80.44
72591;SHT31;60625;51.212;5.952;2022-11-20T07:20:35;3.11;80.82
72591;SHT31;60625;51.212;5.952;2022-11-20T07:25:35;3.15;81.10
72591;SHT31;60625;51.212;5.952;2022-11-20T07:30:35;3.14;81.35
72591;SHT31;60625;51.212;5.952;2022-11-20T07:35:36;3.12;81.28
72591;SHT31;60625;51.212;5.952;2022-11-20T07:40:37;3.11;81.26
72591;SHT31;60625;51.212;5.952;2022-11-20T07:45:37;3.10;81.01
72591;SHT31;60625;51.212;5.952;2022-11-20T07:50:38;3.08;80.93
72591;SHT31;60625;51.212;5.952;2022-11-20T07:55:38;3.03;81.02
72591;SHT31;60625;51.212;5.952;2022-11-20T08:00:38;3.00;81.12
72591;SHT31;60625;51.212;5.952;2022-11-20T08:05:39;3.02;80.98
72591;SHT31;60625;51.212;5.952;2022-11-20T08:10:46;3.08;81.09
72591;SHT31;60625;51.212;5.952;2022-11-20T08:15:50;3.13;81.02
72591;SHT31;60625;51.212;5.952;2022-11-20T08:20:51;3.22;81.14
72591;SHT31;60625;51.212;5.952;2022-11-20T08:25:51;3.29;81.12
72591;SHT31;60625;51.212;5.952;2022-11-20T08:30:57;3.33;81.29
72591;SHT31;60625;51.212;5.952;2022-11-20T08:36:00;3.40;81.36
72591;SHT31;60625;51.212;5.952;2022-11-20T08:41:03;3.48;81.41
72591;SHT31;60625;51.212;5.952;2022-11-20T08:46:24;3.62;81.69
72591;SHT31;60625;51.212;5.952;2022-11-20T08:51:26;3.77;81.67
72591;SHT31;60625;51.212;5.952;2022-11-20T08:56:27;3.96;81.46
72591;SHT31;60625;51.212;5.952;2022-11-20T09:01:28;4.05;81.34
72591;SHT31;60625;51.212;5.952;2022-11-20T09:06:29;4.12;81.32
72591;SHT31;60625;51.212;5.952;2022-11-20T09:11:30;4.17;81.50
72591;SHT31;60625;51.212;5.952;2022-11-20T09:16:30;4.21;81.64
72591;SHT31;60625;51.212;5.952;2022-11-20T09:21:30;4.22;81.82
72591;SHT31;60625;51.212;5.952;2022-11-20T09:26:31;4.24;81.86
72591;SHT31;60625;51.212;5.952;2022-11-20T09:31:31;4.25;82.07
72591;SHT31;60625;51.212;5.952;2022-11-20T09:36:31;4.29;82.23
72591;SHT31;60625;51.212;5.952;2022-11-20T09:47:05;4.44;82.13
72591;SHT31;60625;51.212;5.952;2022-11-20T09:52:30;4.56;82.12
72591;SHT31;60625;51.212;5.952;2022-11-20T09:57:54;4.71;81.89
72591;SHT31;60625;51.212;5.952;2022-11-20T10:03:05;4.83;81.68
72591;SHT31;60625;51.212;5.952;2022-11-20T10:08:19;4.93;81.58
72591;SHT31;60625;51.212;5.952;2022-11-20T10:13:29;4.94;81.72
72591;SHT31;60625;51.212;5.952;2022-11-20T10:19:06;4.97;81.79
72591;SHT31;60625;51.212;5.952;2022-11-20T10:30:03;5.04;81.50
72591;SHT31;60625;51.212;5.952;2022-11-20T10:35:18;5.08;81.66
72591;SHT31;60625;51.212;5.952;2022-11-20T10:45:47;5.18;81.61
72591;SHT31;60625;51.212;5.952;2022-11-20T11:01:47;5.43;81.08
72591;SHT31;60625;51.212;5.952;2022-11-20T11:06:47;5.48;81.10
72591;SHT31;60625;51.212;5.952;2022-11-20T11:11:49;5.49;81.16
72591;SHT31;60625;51.212;5.952;2022-11-20T11:16:51;5.51;81.20
72591;SHT31;60625;51.212;5.952;2022-11-20T11:21:55;5.57;81.01
72591;SHT31;60625;51.212;5.952;2022-11-20T11:32:08;5.63;81.31
72591;SHT31;60625;51.212;5.952;2022-11-20T11:37:15;5.68;81.14
72591;SHT31;60625;51.212;5.952;2022-11-20T11:42:21;5.75;81.11
72591;SHT31;60625;51.212;5.952;2022-11-20T11:47:23;5.80;81.18
72591;SHT31;60625;51.212;5.952;2022-11-20T11:57:59;5.89;81.36
72591;SHT31;60625;51.212;5.952;2022-11-20T12:03:14;5.97;81.50
72591;SHT31;60625;51.212;5.952;2022-11-20T12:08:26;6.00;81.56
72591;SHT31;60625;51.212;5.952;2022-11-20T12:18:33;6.12;81.77
72591;SHT31;60625;51.212;5.952;2022-11-20T12:23:37;6.17;81.93
72591;SHT31;60625;51.212;5.952;2022-11-20T12:29:07;6.22;81.92
72591;SHT31;60625;51.212;5.952;2022-11-20T12:34:35;6.24;82.18
72591;SHT31;60625;51.212;5.952;2022-11-20T12:39:50;6.31;82.40
72591;SHT31;60625;51.212;5.952;2022-11-20T12:56:44;6.64;82.47
72591;SHT31;60625;51.212;5.952;2022-11-20T13:02:23;6.74;82.11
72591;SHT31;60625;51.212;5.952;2022-11-20T13:07:35;6.79;82.08
72591;SHT31;60625;51.212;5.952;2022-11-20T13:12:39;6.83;82.08
72591;SHT31;60625;51.212;5.952;2022-11-20T13:17:54;6.85;81.79
72591;SHT31;60625;51.212;5.952;2022-11-20T13:22:59;6.88;81.94
72591;SHT31;60625;51.212;5.952;2022-11-20T13:28:01;6.93;81.95
72591;SHT31;60625;51.212;5.952;2022-11-20T13:38:23;6.97;81.95
72591;SHT31;60625;51.212;5.952;2022-11-20T13:43:34;6.99;81.89
72591;SHT31;60625;51.212;5.952;2022-11-20T13:48:41;7.01;81.82
72591;SHT31;60625;51.212;5.952;2022-11-20T14:05:15;6.98;82.51
72591;SHT31;60625;51.212;5.952;2022-11-20T14:10:24;6.96;82.52
72591;SHT31;60625;51.212;5.952;2022-11-20T14:15:29;6.98;82.61
72591;SHT31;60625;51.212;5.952;2022-11-20T14:20:32;7.02;82.63
72591;SHT31;60625;51.212;5.952;2022-11-20T14:25:34;7.02;83.06
72591;SHT31;60625;51.212;5.952;2022-11-20T14:30:44;7.03;83.11
72591;SHT31;60625;51.212;5.952;2022-11-20T14:35:48;7.03;83.47
72591;SHT31;60625;51.212;5.952;2022-11-20T14:41:06;7.05;83.71
72591;SHT31;60625;51.212;5.952;2022-11-20T14:46:08;7.05;83.99
72591;SHT31;60625;51.212;5.952;2022-11-20T14:51:10;7.02;84.36
72591;SHT31;60625;51.212;5.952;2022-11-20T14:56:24;7.02;84.68
72591;SHT31;60625;51.212;5.952;2022-11-20T15:01:25;7.03;84.83
72591;SHT31;60625;51.212;5.952;2022-11-20T15:06:28;7.05;85.11
72591;SHT31;60625;51.212;5.952;2022-11-20T15:11:32;7.04;85.48
72591;SHT31;60625;51.212;5.952;2022-11-20T15:16:35;7.03;85.67
72591;SHT31;60625;51.212;5.952;2022-11-20T15:21:43;7.05;85.73
72591;SHT31;60625;51.212;5.952;2022-11-20T15:26:43;7.07;85.82
72591;SHT31;60625;51.212;5.952;2022-11-20T15:31:44;7.08;85.89
72591;SHT31;60625;51.212;5.952;2022-11-20T15:36:45;7.10;86.04
72591;SHT31;60625;51.212;5.952;2022-11-20T15:41:46;7.11;86.21
72591;SHT31;60625;51.212;5.952;2022-11-20T15:46:50;7.12;86.46
72591;SHT31;60625;51.212;5.952;2022-11-20T15:51:50;7.14;86.71
72591;SHT31;60625;51.212;5.952;2022-11-20T15:56:53;7.17;86.96
72591;SHT31;60625;51.212;5.952;2022-11-20T16:01:54;7.19;87.19
72591;SHT31;60625;51.212;5.952;2022-11-20T16:06:57;7.20;87.46
72591;SHT31;60625;51.212;5.952;2022-11-20T16:11:58;7.19;87.70
72591;SHT31;60625;51.212;5.952;2022-11-20T16:16:59;7.19;87.80
72591;SHT31;60625;51.212;5.952;2022-11-20T16:21:59;7.20;87.85
72591;SHT31;60625;51.212;5.952;2022-11-20T16:27:03;7.21;87.96
72591;SHT31;60625;51.212;5.952;2022-11-20T16:32:04;7.23;88.11
72591;SHT31;60625;51.212;5.952;2022-11-20T16:37:05;7.27;88.12
72591;SHT31;60625;51.212;5.952;2022-11-20T16:42:08;7.30;88.19
72591;SHT31;60625;51.212;5.952;2022-11-20T16:47:08;7.32;88.21
72591;SHT31;60625;51.212;5.952;2022-11-20T16:52:09;7.34;88.22
72591;SHT31;60625;51.212;5.952;2022-11-20T16:57:09;7.36;88.38
72591;SHT31;60625;51.212;5.952;2022-11-20T17:02:12;7.38;88.54
72591;SHT31;60625;51.212;5.952;2022-11-20T17:07:12;7.41;88.65
72591;SHT31;60625;51.212;5.952;2022-11-20T17:12:12;7.44;88.75
72591;SHT31;60625;51.212;5.952;2022-11-20T17:17:13;7.48;89.00
72591;SHT31;60625;51.212;5.952;2022-11-20T17:22:13;7.53;88.97
72591;SHT31;60625;51.212;5.952;2022-11-20T17:27:14;7.58;89.03
72591;SHT31;60625;51.212;5.952;2022-11-20T17:32:15;7.62;89.18
72591;SHT31;60625;51.212;5.952;2022-11-20T17:37:15;7.66;89.57
72591;SHT31;60625;51.212;5.952;2022-11-20T17:42:17;7.72;89.66
72591;SHT31;60625;51.212;5.952;2022-11-20T17:47:29;7.78;89.65
72591;SHT31;60625;51.212;5.952;2022-11-20T17:52:30;7.86;89.57
72591;SHT31;60625;51.212;5.952;2022-11-20T17:57:32;7.93;89.49
72591;SHT31;60625;51.212;5.952;2022-11-20T18:02:51;7.99;89.32
72591;SHT31;60625;51.212;5.952;2022-11-20T18:07:52;8.05;89.28
72591;SHT31;60625;51.212;5.952;2022-11-20T18:12:53;8.14;89.11
72591;SHT31;60625;51.212;5.952;2022-11-20T18:17:53;8.22;88.93
72591;SHT31;60625;51.212;5.952;2022-11-20T18:22:53;8.29;88.63
72591;SHT31;60625;51.212;5.952;2022-11-20T18:27:54;8.33;88.47
72591;SHT31;60625;51.212;5.952;2022-11-20T18:32:55;8.36;88.41
72591;SHT31;60625;51.212;5.952;2022-11-20T18:37:55;8.40;88.25
72591;SHT31;60625;51.212;5.952;2022-11-20T18:42:56;8.42;88.18
72591;SHT31;60625;51.212;5.952;2022-11-20T18:48:15;8.44;88.00
72591;SHT31;60625;51.212;5.952;2022-11-20T18:53:15;8.46;87.77
72591;SHT31;60625;51.212;5.952;2022-11-20T18:58:16;8.51;87.28
72591;SHT31;60625;51.212;5.952;2022-11-20T19:03:16;8.53;87.01
72591;SHT31;60625;51.212;5.952;2022-11-20T19:08:17;8.53;86.81
72591;SHT31;60625;51.212;5.952;2022-11-20T19:13:17;8.54;86.65
72591;SHT31;60625;51.212;5.952;2022-11-20T19:18:17;8.53;86.59
72591;SHT31;60625;51.212;5.952;2022-11-20T19:23:18;8.52;86.57
72591;SHT31;60625;51.212;5.952;2022-11-20T19:28:21;8.50;86.53
72591;SHT31;60625;51.212;5.952;2022-11-20T19:33:21;8.48;86.56
72591;SHT31;60625;51.212;5.952;2022-11-20T19:38:22;8.47;86.63
72591;SHT31;60625;51.212;5.952;2022-11-20T19:43:22;8.44;86.65
72591;SHT31;60625;51.212;5.952;2022-11-20T19:48:23;8.44;86.56
72591;SHT31;60625;51.212;5.952;2022-11-20T19:53:23;8.41;86.43
72591;SHT31;60625;51.212;5.952;2022-11-20T19:58:28;8.41;86.28
72591;SHT31;60625;51.212;5.952;2022-11-20T20:03:30;8.39;86.14
72591;SHT31;60625;51.212;5.952;2022-11-20T20:08:31;8.36;86.04
72591;SHT31;60625;51.212;5.952;2022-11-20T20:13:32;8.35;85.90
72591;SHT31;60625;51.212;5.952;2022-11-20T20:18:32;8.33;85.86
72591;SHT31;60625;51.212;5.952;2022-11-20T20:23:33;8.31;85.81
72591;SHT31;60625;51.212;5.952;2022-11-20T20:28:35;8.27;85.94
72591;SHT31;60625;51.212;5.952;2022-11-20T20:33:36;8.22;85.93
72591;SHT31;60625;51.212;5.952;2022-11-20T20:38:38;8.18;85.86
72591;SHT31;60625;51.212;5.952;2022-11-20T20:43:39;8.14;85.72
72591;SHT31;60625;51.212;5.952;2022-11-20T20:48:59;8.09;85.79
72591;SHT31;60625;51.212;5.952;2022-11-20T20:53:59;8.04;85.90
72591;SHT31;60625;51.212;5.952;2022-11-20T20:59:00;8.01;85.71
72591;SHT31;60625;51.212;5.952;2022-11-20T21:04:02;7.99;85.68
72591;SHT31;60625;51.212;5.952;2022-11-20T21:09:06;7.97;85.64
72591;SHT31;60625;51.212;5.952;2022-11-20T21:14:06;7.97;85.64
72591;SHT31;60625;51.212;5.952;2022-11-20T21:19:07;7.96;85.61
72591;SHT31;60625;51.212;5.952;2022-11-20T21:24:07;7.96;85.56
72591;SHT31;60625;51.212;5.952;2022-11-20T21:29:08;7.96;85.50
72591;SHT31;60625;51.212;5.952;2022-11-20T21:34:10;7.95;85.50
72591;SHT31;60625;51.212;5.952;2022-11-20T21:39:12;7.95;85.54
72591;SHT31;60625;51.212;5.952;2022-11-20T21:44:14;7.95;85.79
72591;SHT31;60625;51.212;5.952;2022-11-20T21:49:14;7.93;85.97
72591;SHT31;60625;51.212;5.952;2022-11-20T21:54:16;7.91;86.28
72591;SHT31;60625;51.212;5.952;2022-11-20T21:59:17;7.89;86.38
72591;SHT31;60625;51.212;5.952;2022-11-20T22:04:18;7.86;86.54
72591;SHT31;60625;51.212;5.952;2022-11-20T22:09:19;7.84;86.63
72591;SHT31;60625;51.212;5.952;2022-11-20T22:14:19;7.82;86.66
72591;SHT31;60625;51.212;5.952;2022-11-20T22:19:20;7.79;86.65
72591;SHT31;60625;51.212;5.952;2022-11-20T22:24:22;7.77;86.60
72591;SHT31;60625;51.212;5.952;2022-11-20T22:29:23;7.75;86.50
72591;SHT31;60625;51.212;5.952;2022-11-20T22:34:23;7.75;86.49
72591;SHT31;60625;51.212;5.952;2022-11-20T22:39:23;7.74;86.47
72591;SHT31;60625;51.212;5.952;2022-11-20T22:44:24;7.74;86.40
72591;SHT31;60625;51.212;5.952;2022-11-20T22:49:24;7.73;86.24
72591;SHT31;60625;51.212;5.952;2022-11-20T22:54:25;7.70;86.20
72591;SHT31;60625;51.212;5.952;2022-11-20T22:59:25;7.66;86.11
72591;SHT31;60625;51.212;5.952;2022-11-20T23:04:26;7.64;86.09
72591;SHT31;60625;51.212;5.952;2022-11-20T23:09:26;7.63;85.95
72591;SHT31;60625;51.212;5.952;2022-11-20T23:14:26;7.63;85.87
72591;SHT31;60625;51.212;5.952;2022-11-20T23:19:27;7.63;85.88
72591;SHT31;60625;51.212;5.952;2022-11-20T23:24:27;7.64;85.75
72591;SHT31;60625;51.212;5.952;2022-11-20T23:29:28;7.65;85.71
72591;SHT31;60625;51.212;5.952;2022-11-20T23:34:28;7.66;85.71
72591;SHT31;60625;51.212;5.952;2022-11-20T23:39:28;7.65;85.69
72591;SHT31;60625;51.212;5.952;2022-11-20T23:44:29;7.64;85.67
72591;SHT31;60625;51.212;5.952;2022-11-20T23:49:29;7.65;85.52
72591;SHT31;60625;51.212;5.952;2022-11-20T23:54:30;7.65;85.50
72591;SHT31;60625;51.212;5.952;2022-11-20T23:59:31;7.64;85.53
